Time;durP1;ratioP1;P1;durP2;ratioP2;P2;SDS_P1;SDS_P2;PMS_P1;PMS_P2;Temp;Humidity;BMP_temperature;BMP_pressure;BME280_temperature;BME280_humidity;BME280_pressure;Samples;Min_cycle;Max_cycle;Signal;HPM_P1;HPM_P2
2022/11/06 00:00:14;;;;;;;15.73;11.65;;;9.50;99.90;;;;;;5118410;27;20042;-53
2022/11/06 00:02:40;;;;;;;18.17;11.18;;;9.40;99.90;;;;;;5137757;27;20053;-56
2022/11/06 00:07:51;;;;;;;16.00;11.05;;;9.40;99.90;;;;;;5137030;27;20095;-53
2022/11/06 00:10:17;;;;;;;16.58;11.38;;;9.40;99.90;;;;;;5137069;27;20043;-43
2022/11/06 00:12:44;;;;;;;20.17;11.43;;;9.30;99.90;;;;;;5137246;27;20475;-48
2022/11/06 00:15:09;;;;;;;13.70;11.60;;;9.30;99.90;;;;;;5137135;27;20485;-50
2022/11/06 00:17:35;;;;;;;19.15;12.13;;;9.30;99.90;;;;;;5118136;27;20047;-56
2022/11/06 00:20:01;;;;;;;19.25;11.55;;;9.30;99.90;;;;;;5136623;27;20822;-53
2022/11/06 00:22:27;;;;;;;16.45;11.73;;;9.30;99.90;;;;;;5137184;27;20396;-50
2022/11/06 00:24:52;;;;;;;18.80;11.55;;;9.30;99.90;;;;;;5137302;27;20075;-46
2022/11/06 00:27:18;;;;;;;14.73;10.85;;;9.30;99.90;;;;;;5136968;27;20042;-50
2022/11/06 00:29:44;;;;;;;16.42;10.75;;;9.40;99.90;;;;;;5117934;27;20578;-52
2022/11/06 00:32:09;;;;;;;17.88;10.65;;;9.30;99.90;;;;;;5136799;27;20039;-52
2022/11/06 00:34:35;;;;;;;17.35;10.93;;;9.30;99.90;;;;;;5137357;27;20039;-46
2022/11/06 00:37:00;;;;;;;16.20;10.65;;;9.30;99.90;;;;;;5137046;27;20042;-50
2022/11/06 00:39:26;;;;;;;17.45;11.02;;;9.30;99.90;;;;;;5117958;27;20054;-53
2022/11/06 00:41:52;;;;;;;15.10;9.70;;;9.40;99.90;;;;;;5137064;27;20030;-49
2022/11/06 00:44:17;;;;;;;18.05;11.30;;;9.40;99.90;;;;;;5138026;27;20038;-42
2022/11/06 00:46:43;;;;;;;20.63;12.00;;;9.40;99.90;;;;;;5134250;27;20406;-54
2022/11/06 00:49:09;;;;;;;13.98;10.52;;;9.40;99.90;;;;;;5118446;27;20357;-41
2022/11/06 00:51:38;;;;;;;19.33;11.25;;;9.40;99.90;;;;;;5136530;27;20042;-47
2022/11/06 00:54:06;;;;;;;17.23;10.77;;;9.40;99.90;;;;;;5117834;27;20057;-48
2022/11/06 00:56:32;;;;;;;15.93;11.30;;;9.40;99.90;;;;;;5136359;27;20225;-45
2022/11/06 00:58:59;;;;;;;15.70;10.65;;;9.40;99.90;;;;;;5110447;27;20502;-51
2022/11/06 01:01:27;;;;;;;16.27;11.30;;;9.30;99.90;;;;;;5123849;27;20050;-48
2022/11/06 01:04:04;;;;;;;17.40;11.82;;;9.40;99.90;;;;;;5136984;27;20038;-41
2022/11/06 01:06:34;;;;;;;17.65;11.80;;;9.40;99.90;;;;;;5124022;27;20171;-46
2022/11/06 01:09:00;;;;;;;19.60;11.25;;;9.30;99.90;;;;;;5117890;27;20054;-44
2022/11/06 01:11:32;;;;;;;17.98;11.48;;;9.30;99.90;;;;;;5136732;27;20034;-52
2022/11/06 01:13:59;;;;;;;21.58;12.05;;;9.30;99.90;;;;;;5117809;27;20520;-55
2022/11/06 01:16:25;;;;;;;17.45;11.15;;;9.30;99.90;;;;;;5136500;27;20053;-55
2022/11/06 01:18:52;;;;;;;22.63;12.77;;;9.30;99.90;;;;;;5116797;27;20039;-52
2022/11/06 01:21:22;;;;;;;16.42;12.13;;;9.30;99.90;;;;;;5136327;27;20038;-52
2022/11/06 01:23:52;;;;;;;17.85;12.63;;;9.30;99.90;;;;;;5136605;27;20043;-45
2022/11/06 01:26:18;;;;;;;20.08;13.23;;;9.30;99.90;;;;;;5137168;27;20043;-43
2022/11/06 01:28:43;;;;;;;23.08;14.32;;;9.20;99.90;;;;;;5136491;27;20053;-51
2022/11/06 01:31:13;;;;;;;22.17;14.20;;;9.20;99.90;;;;;;5136384;27;20310;-53
2022/11/06 01:33:39;;;;;;;21.73;14.60;;;9.20;99.90;;;;;;5117876;27;20194;-50
2022/11/06 01:36:07;;;;;;;20.73;14.40;;;9.20;99.90;;;;;;5117986;27;20470;-56
2022/11/06 01:38:32;;;;;;;20.08;15.15;;;9.20;99.90;;;;;;5135374;27;20046;-52
2022/11/06 01:40:58;;;;;;;20.52;15.80;;;9.20;99.90;;;;;;5099903;27;20050;-55
2022/11/06 01:43:43;;;;;;;24.45;17.20;;;9.20;99.90;;;;;;5136067;27;20046;-50
2022/11/06 01:46:09;;;;;;;23.55;17.60;;;9.30;99.90;;;;;;5132138;27;20047;-44
2022/11/06 01:48:37;;;;;;;24.00;17.13;;;9.20;99.90;;;;;;5135648;27;20110;-52
2022/11/06 01:51:03;;;;;;;24.35;16.77;;;9.20;99.90;;;;;;5135434;27;20623;-43
2022/11/06 01:53:29;;;;;;;24.98;17.70;;;9.20;99.90;;;;;;5136609;27;20043;-51
2022/11/06 01:55:58;;;;;;;20.63;16.52;;;9.20;99.90;;;;;;5100753;27;20050;-57
2022/11/06 01:58:28;;;;;;;23.67;17.67;;;9.20;99.90;;;;;;5135774;27;20042;-50
2022/11/06 02:00:54;;;;;;;22.05;17.60;;;9.20;99.90;;;;;;5134946;27;20038;-55
2022/11/06 02:03:20;;;;;;;24.00;18.45;;;9.20;99.90;;;;;;5136710;27;20054;-51
2022/11/06 02:05:45;;;;;;;24.80;18.60;;;9.20;99.90;;;;;;5117433;27;20403;-57
2022/11/06 02:08:16;;;;;;;24.42;18.42;;;9.10;99.90;;;;;;5139347;27;20047;-52
2022/11/06 02:10:42;;;;;;;26.80;19.95;;;9.10;99.90;;;;;;5139321;27;20031;-58
2022/11/06 02:13:24;;;;;;;21.17;18.92;;;9.20;99.90;;;;;;5139519;27;20039;-49
2022/11/06 02:16:14;;;;;;;26.58;18.85;;;9.20;99.90;;;;;;5139727;27;20043;-54
2022/11/06 02:18:51;;;;;;;23.80;20.02;;;9.10;99.90;;;;;;5139221;27;20049;-48
2022/11/06 02:21:25;;;;;;;28.42;20.02;;;9.10;99.90;;;;;;5121560;27;20053;-53
2022/11/06 02:24:18;;;;;;;23.73;19.73;;;9.20;99.90;;;;;;5139870;27;20039;-51
2022/11/06 02:27:14;;;;;;;30.42;18.98;;;9.20;99.90;;;;;;5139818;27;20057;-48
2022/11/06 02:29:45;;;;;;;24.33;19.85;;;9.10;99.90;;;;;;5139561;27;20042;-52
2022/11/06 02:32:16;;;;;;;25.15;18.25;;;9.20;99.90;;;;;;5126256;27;20047;-50
2022/11/06 02:34:43;;;;;;;33.10;20.92;;;9.20;99.90;;;;;;5120531;27;20070;-54
2022/11/06 02:37:13;;;;;;;23.90;19.20;;;9.20;99.90;;;;;;5139836;27;20046;-57
2022/11/06 02:39:43;;;;;;;24.58;20.80;;;9.10;99.90;;;;;;5139118;27;20074;-52
2022/11/06 02:42:11;;;;;;;23.88;20.25;;;9.20;99.90;;;;;;5121024;27;20149;-41
2022/11/06 02:44:39;;;;;;;28.48;20.73;;;9.20;99.90;;;;;;5138299;27;20034;-51
2022/11/06 02:47:08;;;;;;;25.48;19.45;;;9.30;99.90;;;;;;5137860;27;20043;-56
2022/11/06 02:49:53;;;;;;;29.70;20.92;;;9.30;99.90;;;;;;5139390;27;20050;-49
2022/11/06 02:52:21;;;;;;;26.50;19.48;;;9.30;99.90;;;;;;5139585;27;20050;-54
2022/11/06 02:55:18;;;;;;;21.50;19.13;;;9.30;99.90;;;;;;5120508;27;20122;-43
2022/11/06 02:57:51;;;;;;;25.55;20.80;;;9.20;99.90;;;;;;5017422;28;20049;-52
2022/11/06 03:00:17;;;;;;;29.80;21.10;;;9.20;99.90;;;;;;5017652;28;20040;-48
2022/11/06 03:02:55;;;;;;;26.02;21.35;;;9.20;99.90;;;;;;5033999;28;20520;-52
2022/11/06 03:05:37;;;;;;;22.60;20.05;;;9.20;99.90;;;;;;5018091;28;20084;-47
2022/11/06 03:08:12;;;;;;;23.75;20.15;;;9.20;99.90;;;;;;5034260;28;20532;-46
2022/11/06 03:11:11;;;;;;;27.83;20.67;;;9.30;99.90;;;;;;5034117;28;20594;-51
2022/11/06 03:13:46;;;;;;;24.63;20.48;;;9.30;99.90;;;;;;5034723;28;20490;-50
2022/11/06 03:16:29;;;;;;;26.33;19.45;;;9.30;99.90;;;;;;5034401;28;20057;-55
2022/11/06 03:19:01;;;;;;;20.48;18.23;;;9.30;99.90;;;;;;5017490;28;20684;-54
2022/11/06 03:22:06;;;;;;;22.63;18.10;;;9.30;99.90;;;;;;5017459;28;20201;-42
2022/11/06 03:24:58;;;;;;;23.00;19.20;;;9.40;99.90;;;;;;5024118;28;20049;-42
2022/11/06 03:27:56;;;;;;;21.45;18.02;;;9.40;99.90;;;;;;5033796;28;20342;-48
2022/11/06 03:30:22;;;;;;;24.60;18.75;;;9.20;99.90;;;;;;4954223;28;20505;-44
2022/11/06 03:33:06;;;;;;;26.23;18.60;;;9.40;99.90;;;;;;4955054;28;20126;-52
2022/11/06 03:35:41;;;;;;;23.05;17.42;;;9.30;99.90;;;;;;5033579;28;20546;-45
2022/11/06 03:38:15;;;;;;;27.10;17.40;;;9.30;99.90;;;;;;5015069;28;20045;-53
2022/11/06 03:40:46;;;;;;;21.67;18.75;;;9.30;99.90;;;;;;5003014;28;20566;-49
2022/11/06 03:43:15;;;;;;;21.83;16.98;;;9.30;99.90;;;;;;5017389;28;20091;-49
2022/11/06 03:45:43;;;;;;;19.63;16.35;;;9.30;99.90;;;;;;5023610;28;20061;-46
2022/11/06 03:48:22;;;;;;;21.23;16.55;;;9.30;99.90;;;;;;5010268;28;20173;-47
2022/11/06 03:50:59;;;;;;;24.67;16.33;;;9.40;99.90;;;;;;5013576;28;20160;-50
2022/11/06 03:53:33;;;;;;;25.42;16.60;;;9.30;99.90;;;;;;5014106;28;20056;-57
2022/11/06 03:56:07;;;;;;;23.48;16.38;;;9.40;99.90;;;;;;5026580;28;20122;-52
2022/11/06 03:58:39;;;;;;;23.77;15.68;;;9.40;99.90;;;;;;4996695;28;20053;-45
2022/11/06 04:01:08;;;;;;;21.42;15.35;;;9.40;99.90;;;;;;4996348;28;20065;-54
2022/11/06 04:03:44;;;;;;;17.63;14.77;;;9.40;99.90;;;;;;5023075;28;20060;-45
2022/11/06 04:06:18;;;;;;;17.75;15.88;;;9.40;99.90;;;;;;5029821;27;20544;-54
2022/11/06 04:14:21;;;;;;;24.83;15.43;;;9.40;99.90;;;;;;5138065;27;20539;-54
2022/11/06 04:16:52;;;;;;;18.95;14.88;;;9.40;99.90;;;;;;5138689;27;20054;-49
2022/11/06 04:19:20;;;;;;;21.42;15.43;;;9.50;99.90;;;;;;5102189;27;20046;-49
2022/11/06 04:21:54;;;;;;;21.52;14.57;;;9.40;99.90;;;;;;5118742;27;20050;-54
2022/11/06 04:27:40;;;;;;;20.42;15.82;;;9.40;99.90;;;;;;5123622;27;20112;-44
2022/11/06 04:30:17;;;;;;;21.48;15.32;;;9.40;99.90;;;;;;5136390;27;20129;-56
2022/11/06 04:33:07;;;;;;;18.40;14.35;;;9.50;99.90;;;;;;5137605;27;20047;-51
2022/11/06 04:35:41;;;;;;;19.13;14.77;;;9.40;99.90;;;;;;5118559;27;20098;-45
2022/11/06 04:38:11;;;;;;;23.73;15.63;;;9.40;99.90;;;;;;5137163;27;20430;-52
2022/11/06 04:40:56;;;;;;;20.08;14.80;;;9.40;99.90;;;;;;5136403;27;20492;-46
2022/11/06 04:43:33;;;;;;;16.42;14.10;;;9.50;99.90;;;;;;5137006;27;20495;-50
2022/11/06 04:46:01;;;;;;;22.17;14.25;;;9.40;99.90;;;;;;5133734;27;20050;-48
2022/11/06 04:48:27;;;;;;;20.55;14.40;;;9.40;99.90;;;;;;5137072;27;20388;-45
2022/11/06 04:51:00;;;;;;;19.48;14.25;;;9.40;99.90;;;;;;5137114;27;20053;-50
2022/11/06 04:53:28;;;;;;;22.07;13.57;;;9.40;99.90;;;;;;5104540;27;20082;-58
2022/11/06 04:56:04;;;;;;;21.85;13.52;;;9.40;99.90;;;;;;5118060;27;20283;-44
2022/11/06 04:58:30;;;;;;;18.55;13.48;;;9.50;99.90;;;;;;5136794;27;20077;-51
2022/11/06 05:00:56;;;;;;;18.70;14.27;;;9.40;99.90;;;;;;5117277;27;20058;-51
2022/11/06 05:03:21;;;;;;;20.08;13.70;;;9.40;99.90;;;;;;5136825;27;20039;-47
2022/11/06 05:05:47;;;;;;;17.48;13.82;;;9.40;99.90;;;;;;5136575;27;20043;-42
2022/11/06 05:08:15;;;;;;;20.63;14.45;;;9.40;99.90;;;;;;5117153;27;20117;-52
2022/11/06 05:10:42;;;;;;;16.38;13.85;;;9.40;99.90;;;;;;5136161;27;20492;-45
2022/11/06 05:13:08;;;;;;;17.27;13.07;;;9.40;99.90;;;;;;5137246;27;20552;-47
2022/11/06 05:15:34;;;;;;;19.02;13.45;;;9.30;99.90;;;;;;5117886;27;20514;-46
2022/11/06 05:18:00;;;;;;;23.60;14.02;;;9.40;99.90;;;;;;5136301;27;20059;-56
2022/11/06 05:20:25;;;;;;;23.02;14.48;;;9.40;99.90;;;;;;5136926;27;20054;-48
2022/11/06 05:22:57;;;;;;;16.42;13.05;;;9.40;99.90;;;;;;5136731;27;20400;-51
2022/11/06 05:25:35;;;;;;;18.38;13.65;;;9.30;99.90;;;;;;5136919;27;20925;-45
2022/11/06 05:28:04;;;;;;;22.98;13.75;;;9.40;99.90;;;;;;5117369;27;20050;-45
2022/11/06 05:30:30;;;;;;;23.10;14.98;;;9.30;99.90;;;;;;5117880;27;20329;-52
2022/11/06 05:32:56;;;;;;;18.55;13.63;;;9.30;99.90;;;;;;5137689;27;20110;-51
2022/11/06 05:35:21;;;;;;;17.95;14.70;;;9.40;99.90;;;;;;5136320;27;20082;-48
2022/11/06 05:37:47;;;;;;;23.05;14.60;;;9.30;99.90;;;;;;5118548;27;20047;-46
2022/11/06 05:40:13;;;;;;;19.60;16.73;;;9.30;99.90;;;;;;5135953;27;20501;-48
2022/11/06 05:42:40;;;;;;;22.17;16.30;;;9.30;99.90;;;;;;5140257;27;20050;-50
2022/11/06 05:45:06;;;;;;;21.92;15.70;;;9.30;99.90;;;;;;5137324;27;20078;-48
2022/11/06 05:47:33;;;;;;;24.40;17.83;;;9.30;99.90;;;;;;5140152;27;20368;-48
2022/11/06 05:49:58;;;;;;;23.92;16.00;;;9.20;99.90;;;;;;5121332;27;20054;-56
2022/11/06 05:52:24;;;;;;;24.92;15.88;;;9.30;99.90;;;;;;5122351;27;20070;-53
2022/11/06 05:54:50;;;;;;;21.13;16.27;;;9.30;99.90;;;;;;5128946;27;20136;-52
2022/11/06 05:57:15;;;;;;;29.55;16.55;;;9.20;99.90;;;;;;5139023;27;20130;-44
2022/11/06 05:59:41;;;;;;;23.10;16.77;;;9.20;99.90;;;;;;5120580;27;20114;-44
2022/11/06 06:02:07;;;;;;;23.67;16.08;;;9.30;99.90;;;;;;5122418;27;20081;-54
2022/11/06 06:04:33;;;;;;;27.00;17.50;;;9.20;99.90;;;;;;5121147;27;20053;-49
2022/11/06 06:06:59;;;;;;;27.63;18.38;;;9.20;99.90;;;;;;5113948;27;20047;-58
2022/11/06 06:09:25;;;;;;;23.60;16.58;;;9.20;99.90;;;;;;5140314;27;20054;-51
2022/11/06 06:11:51;;;;;;;24.55;16.48;;;9.10;99.90;;;;;;5140936;27;20160;-52
2022/11/06 06:14:18;;;;;;;20.45;15.43;;;9.20;99.90;;;;;;5122286;27;20064;-52
2022/11/06 06:16:43;;;;;;;24.73;15.23;;;9.20;99.90;;;;;;5136310;27;20118;-46
2022/11/06 06:19:09;;;;;;;20.50;16.02;;;9.20;99.90;;;;;;5120779;27;20047;-42
2022/11/06 06:21:35;;;;;;;26.95;14.77;;;9.20;99.90;;;;;;5120826;27;20099;-57
2022/11/06 06:24:02;;;;;;;22.65;14.65;;;9.20;99.90;;;;;;5139890;27;20495;-46
2022/11/06 06:26:28;;;;;;;21.33;14.68;;;9.20;99.90;;;;;;5140067;27;20042;-54
2022/11/06 06:28:54;;;;;;;26.27;14.73;;;9.20;99.90;;;;;;5139264;27;20038;-47
2022/11/06 06:31:19;;;;;;;19.80;13.50;;;9.30;99.90;;;;;;5120262;27;20070;-49
2022/11/06 06:33:45;;;;;;;19.23;12.48;;;9.20;99.90;;;;;;5139988;27;20070;-53
2022/11/06 06:36:11;;;;;;;19.80;13.02;;;9.20;99.90;;;;;;5140645;27;20502;-54
2022/11/06 06:38:36;;;;;;;21.48;12.10;;;9.30;99.90;;;;;;5139859;27;20375;-44
2022/11/06 06:41:04;;;;;;;17.17;12.38;;;9.30;99.90;;;;;;5139142;27;20042;-42
2022/11/06 06:43:30;;;;;;;20.00;11.93;;;9.30;99.90;;;;;;5125521;27;20060;-52
2022/11/06 06:46:00;;;;;;;17.88;11.80;;;9.30;99.90;;;;;;5116743;27;20134;-55
2022/11/06 06:48:26;;;;;;;16.90;11.38;;;9.30;99.90;;;;;;5139111;27;20103;-49
2022/11/06 06:50:55;;;;;;;20.83;12.50;;;9.30;99.90;;;;;;5138893;27;20728;-46
2022/11/06 06:53:20;;;;;;;20.88;12.15;;;9.40;99.90;;;;;;5119331;27;20448;-53
2022/11/06 06:55:46;;;;;;;20.27;11.35;;;9.40;99.90;;;;;;5139773;27;20195;-50
2022/11/06 06:58:12;;;;;;;25.42;12.70;;;9.40;99.90;;;;;;5139286;27;20039;-57
2022/11/06 07:00:37;;;;;;;23.85;13.15;;;9.40;99.90;;;;;;5139179;27;20191;-49
2022/11/06 07:03:03;;;;;;;22.38;12.48;;;9.40;99.90;;;;;;5139400;27;20486;-48
2022/11/06 07:05:30;;;;;;;22.50;13.75;;;9.30;99.90;;;;;;5121205;27;20027;-56
2022/11/06 07:07:55;;;;;;;21.58;12.55;;;9.40;99.90;;;;;;5138266;27;20719;-51
2022/11/06 07:10:21;;;;;;;22.35;12.40;;;9.40;99.90;;;;;;5138912;27;20090;-51
2022/11/06 07:12:47;;;;;;;21.70;12.30;;;9.30;99.90;;;;;;5139670;27;20046;-43
2022/11/06 07:15:13;;;;;;;23.17;12.40;;;9.40;99.90;;;;;;5138973;27;20042;-54
2022/11/06 07:17:38;;;;;;;19.88;12.10;;;9.40;99.90;;;;;;5138289;27;20150;-45
2022/11/06 07:20:05;;;;;;;25.40;12.05;;;9.30;99.90;;;;;;5138882;27;20532;-52
2022/11/06 07:22:30;;;;;;;18.42;11.07;;;9.30;99.90;;;;;;5119765;27;20055;-53
2022/11/06 07:24:56;;;;;;;17.30;11.32;;;9.40;99.90;;;;;;5120431;27;20043;-55
2022/11/06 07:27:22;;;;;;;23.45;11.85;;;9.40;99.90;;;;;;5138573;27;20150;-54
2022/11/06 07:29:47;;;;;;;23.30;11.68;;;9.40;99.90;;;;;;5137842;27;20221;-42
2022/11/06 07:32:13;;;;;;;17.80;10.82;;;9.40;99.90;;;;;;5138425;27;20133;-48
2022/11/06 07:34:39;;;;;;;24.15;10.52;;;9.40;99.90;;;;;;5138773;27;20796;-44
2022/11/06 07:37:05;;;;;;;19.90;10.98;;;9.50;99.90;;;;;;5137359;27;20127;-53
2022/11/06 07:39:31;;;;;;;18.95;10.75;;;9.50;99.90;;;;;;5137446;27;20150;-50
2022/11/06 07:41:57;;;;;;;17.10;10.00;;;9.50;99.90;;;;;;5138797;27;20143;-47
2022/11/06 07:44:22;;;;;;;21.60;9.82;;;9.50;99.90;;;;;;5135541;27;20377;-49
2022/11/06 07:46:48;;;;;;;17.50;8.80;;;9.40;99.90;;;;;;5133912;27;20085;-42
2022/11/06 07:49:15;;;;;;;16.08;9.60;;;9.40;99.90;;;;;;5138184;27;20099;-56
2022/11/06 07:51:41;;;;;;;18.80;8.85;;;9.50;99.90;;;;;;5138477;27;20442;-52
2022/11/06 07:54:07;;;;;;;19.52;9.38;;;9.50;99.90;;;;;;5119661;27;20081;-53
2022/11/06 07:56:34;;;;;;;18.80;9.18;;;9.40;99.90;;;;;;5137472;27;20122;-45
2022/11/06 07:58:59;;;;;;;19.13;8.68;;;9.60;99.90;;;;;;5137647;27;20031;-54
2022/11/06 08:01:25;;;;;;;19.42;9.32;;;9.50;99.90;;;;;;5138277;27;20111;-44
2022/11/06 08:03:51;;;;;;;15.02;7.88;;;9.50;99.90;;;;;;5118986;27;20089;-46
2022/11/06 08:06:16;;;;;;;14.85;7.35;;;9.50;99.90;;;;;;5138084;27;20138;-52
2022/11/06 08:08:42;;;;;;;14.98;7.25;;;9.60;99.90;;;;;;5119233;27;20401;-48
2022/11/06 08:11:10;;;;;;;14.93;6.47;;;9.50;99.90;;;;;;5119421;27;20086;-55
2022/11/06 08:13:37;;;;;;;17.27;6.43;;;9.60;99.90;;;;;;5138063;27;20038;-49
2022/11/06 08:16:04;;;;;;;9.80;6.40;;;9.60;99.90;;;;;;5118513;27;20745;-42
2022/11/06 08:18:30;;;;;;;15.27;6.57;;;9.60;99.90;;;;;;5137318;27;20603;-56
2022/11/06 08:20:55;;;;;;;18.90;6.70;;;9.70;99.90;;;;;;5119201;27;20058;-52
2022/11/06 08:23:21;;;;;;;12.77;5.97;;;9.60;99.90;;;;;;5137548;27;20046;-57
2022/11/06 08:25:47;;;;;;;10.48;5.97;;;9.70;99.90;;;;;;5124963;27;20395;-44
2022/11/06 08:28:12;;;;;;;13.07;5.85;;;9.70;99.90;;;;;;5136261;27;20076;-47
2022/11/06 08:30:38;;;;;;;10.63;5.55;;;9.80;99.90;;;;;;5117769;27;20097;-49
2022/11/06 08:33:06;;;;;;;13.15;5.47;;;9.70;99.90;;;;;;5137090;27;20085;-46
2022/11/06 08:35:33;;;;;;;12.10;5.55;;;9.80;99.90;;;;;;5137515;27;20050;-49
2022/11/06 08:37:59;;;;;;;17.48;6.13;;;9.80;99.90;;;;;;5136497;27;20046;-48
2022/11/06 08:40:25;;;;;;;8.23;5.47;;;9.80;99.90;;;;;;5137202;27;20841;-53
2022/11/06 08:42:51;;;;;;;13.05;4.70;;;9.80;99.90;;;;;;5136903;27;20054;-48
2022/11/06 08:45:16;;;;;;;12.27;4.90;;;9.80;99.90;;;;;;5115041;27;20059;-45
2022/11/06 08:47:42;;;;;;;12.50;4.85;;;10.00;99.90;;;;;;5136263;27;20054;-55
2022/11/06 08:50:08;;;;;;;11.05;5.30;;;9.90;99.90;;;;;;5136650;27;20540;-49
2022/11/06 08:52:34;;;;;;;9.80;4.60;;;10.00;99.90;;;;;;5118240;27;20043;-51
2022/11/06 08:54:59;;;;;;;12.75;4.75;;;10.00;99.90;;;;;;5136663;27;20035;-51
2022/11/06 08:57:25;;;;;;;8.05;4.45;;;10.00;99.90;;;;;;5137179;27;20065;-56
2022/11/06 08:59:51;;;;;;;11.88;4.15;;;10.00;99.90;;;;;;5134312;27;20045;-53
2022/11/06 09:02:17;;;;;;;11.23;4.80;;;10.10;99.90;;;;;;5135612;27;20034;-57
2022/11/06 09:04:42;;;;;;;12.70;4.60;;;10.10;99.90;;;;;;5136330;27;20456;-54
2022/11/06 09:07:08;;;;;;;12.38;5.18;;;10.20;99.90;;;;;;5135503;27;20142;-52
2022/11/06 09:09:33;;;;;;;10.18;4.40;;;10.20;99.90;;;;;;5136724;27;20472;-42
2022/11/06 09:12:00;;;;;;;14.73;4.40;;;10.20;99.90;;;;;;5117924;27;20549;-46
2022/11/06 09:14:26;;;;;;;10.32;5.10;;;10.30;99.90;;;;;;5087312;27;20083;-53
2022/11/06 09:16:53;;;;;;;8.55;3.92;;;10.30;99.90;;;;;;5136620;27;20107;-46
2022/11/06 09:19:18;;;;;;;8.57;4.28;;;10.40;99.90;;;;;;5136673;27;20043;-54
2022/11/06 09:21:44;;;;;;;10.05;4.20;;;10.50;99.90;;;;;;5132603;27;20039;-50
2022/11/06 09:24:10;;;;;;;9.00;3.95;;;10.50;99.90;;;;;;5095325;27;20610;-46
2022/11/06 09:26:36;;;;;;;14.65;4.53;;;10.40;99.90;;;;;;5136347;27;20047;-52
2022/11/06 09:29:02;;;;;;;13.63;4.47;;;10.50;99.90;;;;;;5135993;27;20055;-46
2022/11/06 09:31:27;;;;;;;11.52;4.07;;;10.50;99.90;;;;;;5137045;27;20042;-53
2022/11/06 09:33:54;;;;;;;11.73;4.10;;;10.50;99.90;;;;;;5136622;27;20058;-51
2022/11/06 09:36:20;;;;;;;11.27;4.60;;;10.50;99.90;;;;;;5136735;27;20096;-50
2022/11/06 09:38:46;;;;;;;10.25;3.78;;;10.50;99.90;;;;;;5136234;27;20042;-48
2022/11/06 09:41:32;;;;;;;9.43;4.00;;;10.50;99.90;;;;;;5100188;27;20149;-49
2022/11/06 09:44:03;;;;;;;11.50;4.28;;;10.50;99.90;;;;;;5128576;27;20055;-55
2022/11/06 09:46:51;;;;;;;11.55;3.78;;;10.50;99.90;;;;;;5129852;27;20047;-53
2022/11/06 09:49:33;;;;;;;11.77;3.60;;;10.60;99.90;;;;;;5134295;27;20058;-43
2022/11/06 09:52:24;;;;;;;9.32;4.15;;;10.60;99.90;;;;;;5133933;27;20046;-52
2022/11/06 09:54:56;;;;;;;12.20;3.63;;;10.60;99.90;;;;;;5134521;27;20074;-53
2022/11/06 09:57:32;;;;;;;9.98;3.75;;;10.70;99.90;;;;;;5117548;27;20095;-53
2022/11/06 10:00:00;;;;;;;11.43;4.10;;;10.60;99.90;;;;;;5123993;27;20495;-54
2022/11/06 10:02:46;;;;;;;11.52;4.00;;;10.60;99.90;;;;;;5125994;27;20047;-55
2022/11/06 10:05:35;;;;;;;11.88;3.58;;;10.70;99.90;;;;;;5136291;27;20613;-57
2022/11/06 10:08:05;;;;;;;10.65;3.00;;;10.70;99.90;;;;;;5132924;27;20061;-55
2022/11/06 10:10:45;;;;;;;8.50;3.72;;;10.70;99.90;;;;;;5112818;27;20057;-55
2022/11/06 10:13:15;;;;;;;10.38;4.20;;;10.70;99.90;;;;;;5134455;27;20551;-47
2022/11/06 10:16:07;;;;;;;9.80;3.83;;;10.80;99.90;;;;;;5136587;27;20046;-52
2022/11/06 10:18:57;;;;;;;7.13;3.38;;;10.80;99.90;;;;;;5134972;27;20055;-51
2022/11/06 10:21:33;;;;;;;8.07;3.35;;;10.80;99.90;;;;;;5135678;27;20484;-42
2022/11/06 10:24:06;;;;;;;10.77;3.70;;;10.90;99.90;;;;;;5135483;27;20122;-43
2022/11/06 10:26:40;;;;;;;10.82;3.55;;;11.00;99.90;;;;;;5134769;27;20451;-60
2022/11/06 10:29:24;;;;;;;;;;;11.00;99.90;;;;;;5138756;27;20042;-58
2022/11/06 10:32:09;;;;;;;14.18;3.92;;;11.00;99.90;;;;;;5139007;27;19919;-47
2022/11/06 10:34:59;;;;;;;9.95;4.03;;;11.00;99.90;;;;;;5138392;27;20416;-50
2022/11/06 10:38:02;;;;;;;10.95;3.67;;;11.00;99.90;;;;;;5136076;27;20046;-54
2022/11/06 10:40:30;;;;;;;11.50;4.17;;;10.90;99.90;;;;;;5137125;27;20372;-51
2022/11/06 10:43:11;;;;;;;8.30;4.15;;;10.80;99.90;;;;;;5139177;27;20589;-52
2022/11/06 10:45:41;;;;;;;7.63;4.03;;;10.80;99.90;;;;;;5137239;27;20054;-57
2022/11/06 10:48:26;;;;;;;11.38;4.65;;;10.80;99.90;;;;;;5117558;27;20035;-57
2022/11/06 10:51:08;;;;;;;10.65;4.25;;;10.80;99.90;;;;;;5136684;27;20095;-52
2022/11/06 10:53:52;;;;;;;8.80;4.75;;;10.70;99.90;;;;;;5137765;27;20039;-49
2022/11/06 10:56:47;;;;;;;10.75;4.43;;;10.70;99.90;;;;;;5138697;27;20079;-47
2022/11/06 10:59:14;;;;;;;13.40;4.90;;;10.70;99.90;;;;;;5137059;27;20042;-54
2022/11/06 11:01:40;;;;;;;12.90;4.65;;;10.70;99.90;;;;;;5120563;27;20045;-48
2022/11/06 11:04:05;;;;;;;12.30;5.22;;;10.90;99.90;;;;;;5138574;27;20043;-48
2022/11/06 11:06:31;;;;;;;9.75;4.30;;;10.80;99.90;;;;;;5137597;27;20541;-53
2022/11/06 11:08:57;;;;;;;10.68;3.80;;;10.90;99.90;;;;;;5135819;27;20050;-51
2022/11/06 11:11:25;;;;;;;8.43;4.25;;;11.00;99.90;;;;;;5136182;27;20081;-46
2022/11/06 11:14:00;;;;;;;10.90;4.15;;;10.90;99.90;;;;;;5136019;27;20043;-50
2022/11/06 11:16:33;;;;;;;10.60;4.40;;;11.10;99.90;;;;;;5136485;27;20148;-55
2022/11/06 11:19:24;;;;;;;11.98;4.30;;;11.10;99.90;;;;;;5117476;27;20045;-46
2022/11/06 11:21:58;;;;;;;10.73;3.70;;;11.20;99.90;;;;;;5120700;27;20059;-54
2022/11/06 11:24:24;;;;;;;13.18;4.00;;;11.20;99.90;;;;;;5137977;27;20042;-51
2022/11/06 11:26:54;;;;;;;8.27;3.67;;;11.30;99.90;;;;;;5134850;27;20070;-44
2022/11/06 11:29:27;;;;;;;7.10;3.22;;;11.40;99.90;;;;;;5117311;27;20122;-57
2022/11/06 11:31:56;;;;;;;10.30;3.67;;;11.40;99.90;;;;;;5134508;27;20102;-47
2022/11/06 11:34:30;;;;;;;11.07;3.78;;;11.50;99.90;;;;;;5137884;27;20046;-56
2022/11/06 11:37:01;;;;;;;6.97;3.10;;;11.50;99.90;;;;;;5136466;27;20152;-52
2022/11/06 11:39:33;;;;;;;7.85;3.28;;;11.50;99.90;;;;;;5135009;27;20035;-54
2022/11/06 11:42:15;;;;;;;7.80;3.08;;;11.60;99.90;;;;;;5136318;27;20031;-53
2022/11/06 11:44:41;;;;;;;10.25;2.80;;;11.60;99.90;;;;;;5132931;27;20047;-51
2022/11/06 11:47:21;;;;;;;12.13;3.97;;;11.60;99.90;;;;;;5123768;27;20082;-52
2022/11/06 11:49:47;;;;;;;6.78;2.55;;;11.60;99.90;;;;;;5114715;27;20453;-52
2022/11/06 11:52:18;;;;;;;9.43;3.85;;;11.70;99.90;;;;;;5138604;27;20035;-53
2022/11/06 11:54:49;;;;;;;11.40;2.85;;;11.70;99.90;;;;;;5114601;27;20035;-50
2022/11/06 11:57:25;;;;;;;10.00;3.03;;;11.70;99.90;;;;;;5118702;27;20065;-50
2022/11/06 12:00:04;;;;;;;6.50;2.50;;;11.70;99.90;;;;;;5133518;27;20047;-51
2022/11/06 12:02:41;;;;;;;6.80;3.15;;;11.70;99.90;;;;;;5136742;27;20061;-53
2022/11/06 12:05:21;;;;;;;5.85;2.47;;;11.70;99.90;;;;;;5119144;27;20142;-44
2022/11/06 12:07:52;;;;;;;7.18;2.90;;;11.70;99.90;;;;;;5137462;27;20054;-46
2022/11/06 12:10:27;;;;;;;5.53;2.38;;;11.70;99.90;;;;;;5118925;27;20055;-55
2022/11/06 12:12:54;;;;;;;8.82;2.60;;;11.70;99.90;;;;;;5104909;27;20046;-45
2022/11/06 12:15:57;;;;;;;7.93;2.60;;;11.80;99.90;;;;;;5133463;27;20050;-57
2022/11/06 12:18:31;;;;;;;8.57;2.23;;;11.80;99.90;;;;;;5096862;27;20039;-51
2022/11/06 12:21:13;;;;;;;9.23;2.55;;;11.90;99.90;;;;;;5128819;27;20053;-52
2022/11/06 12:23:54;;;;;;;7.10;2.30;;;11.90;99.90;;;;;;5135097;27;20057;-54
2022/11/06 12:26:31;;;;;;;8.63;2.83;;;11.80;99.90;;;;;;5130317;27;20038;-57
2022/11/06 12:29:06;;;;;;;4.03;2.35;;;11.70;99.90;;;;;;5136834;27;20042;-46
2022/11/06 12:31:40;;;;;;;6.05;2.58;;;11.70;99.90;;;;;;5137456;27;20053;-46
2022/11/06 12:34:29;;;;;;;7.40;2.85;;;11.60;99.90;;;;;;5115494;27;20120;-54
2022/11/06 12:37:24;;;;;;;8.98;3.83;;;11.60;99.90;;;;;;5096780;27;20043;-52
2022/11/06 12:40:04;;;;;;;6.38;2.45;;;11.60;99.90;;;;;;5131847;27;20134;-57
2022/11/06 12:42:32;;;;;;;8.18;2.80;;;11.50;99.90;;;;;;5116275;27;20599;-58
2022/11/06 12:44:58;;;;;;;7.53;2.85;;;11.50;99.90;;;;;;5131313;27;20057;-58
2022/11/06 12:47:46;;;;;;;8.07;2.47;;;11.50;99.90;;;;;;5136473;27;20412;-53
2022/11/06 12:50:42;;;;;;;6.20;2.50;;;11.50;99.90;;;;;;5136610;27;20051;-57
2022/11/06 12:53:35;;;;;;;10.48;3.47;;;11.40;99.90;;;;;;5137591;27;20095;-50
2022/11/06 12:56:30;;;;;;;9.00;3.28;;;11.40;99.90;;;;;;5136032;27;20145;-52
2022/11/06 12:59:29;;;;;;;8.32;3.80;;;11.40;99.90;;;;;;5007976;28;20576;-52
2022/11/06 13:02:18;;;;;;;9.95;3.90;;;11.30;99.90;;;;;;5031190;28;20045;-57
2022/11/06 13:05:02;;;;;;;12.40;4.97;;;11.20;99.90;;;;;;5018644;28;20091;-52
2022/11/06 13:07:39;;;;;;;11.98;4.43;;;11.20;99.90;;;;;;5014969;28;20059;-53
2022/11/06 13:10:22;;;;;;;7.97;4.10;;;11.20;99.90;;;;;;5013008;28;20417;-56
2022/11/06 13:13:12;;;;;;;10.40;3.67;;;11.20;99.90;;;;;;5027521;28;20270;-43